Terminal Aerodrome Forecast
Issued by NWS

Current Version | Previous Version | Graphics & Text | Print | Product List | Glossary On
Versions: 1 2 3 4 5 6 7 8 9 10 11 12 13 14 15 16 17 18 19
000
FTUS41 KPBZ 312300
TAFMGW
TAF
KMGW 312324Z 0100/0124 21007KT P6SM SCT250
     FM011000 20003KT 5SM -SN BR OVC030
     FM011300 17004KT 2SM -SN BR OVC012
     FM011500 17006KT 2SM -RA BR OVC020
     FM012000 13005KT 3SM -DZ BR SCT004 OVC080=

USA.gov is the U.S. government's official web portal to all federal, state and local government web resources and services.